Time;durP1;ratioP1;P1;durP2;ratioP2;P2;SDS_P1;SDS_P2;PMS_P1;PMS_P2;Temp;Humidity;BMP_temperature;BMP_pressure;BME280_temperature;BME280_humidity;BME280_pressure;Samples;Min_cycle;Max_cycle;Signal;HPM_P1;HPM_P2
2022/09/30 00:00:19;;;;;;;;;;;;;;;;;;5055984;28;20046;-84
2022/09/30 00:02:44;;;;;;;;;;;;;;;;;;5056294;28;19917;-84
2022/09/30 00:05:09;;;;;;;;;;;;;;;;;;5058009;28;20229;-83
2022/09/30 00:07:35;;;;;;;;;;;;;;;;;;5057116;28;19917;-83
2022/09/30 00:10:00;;;;;;;;;;;;;;;;;;5056872;28;20000;-86
2022/09/30 00:12:26;;;;;;;;;;;;;;;;;;5055597;28;19917;-83
2022/09/30 00:14:51;;;;;;;;;;;;;;;;;;5055302;28;20322;-83
2022/09/30 00:17:17;;;;;;;;;;;;;;;;;;5055251;28;19924;-84
2022/09/30 00:19:42;;;;;;;;;;;;;;;;;;5055283;28;19923;-84
2022/09/30 00:22:08;;;;;;;;;;;;;;;;;;5055207;28;19924;-84
2022/09/30 00:24:33;;;;;;;;;;;;;;;;;;5055124;28;19916;-85
2022/09/30 00:26:58;;;;;;;;;;;;;;;;;;5055225;28;20007;-84
2022/09/30 00:29:24;;;;;;;;;;;;;;;;;;5055059;28;19975;-84
2022/09/30 00:31:49;;;;;;;;;;;;;;;;;;5055029;28;19952;-84
2022/09/30 00:34:16;;;;;;;;;;;;;;;;;;5036900;28;19967;-84
2022/09/30 00:36:42;;;;;;;;;;;;;;;;;;5053714;28;19917;-84
2022/09/30 00:39:08;;;;;;;;;;;;;;;;;;5054841;28;19916;-85
2022/09/30 00:41:33;;;;;;;;;;;;;;;;;;5054887;28;20326;-85
2022/09/30 00:43:59;;;;;;;;;;;;;;;;;;5054910;28;19943;-85
2022/09/30 00:46:37;;;;;;;;;;;;;;;;;;5054847;28;20278;-85
2022/09/30 00:49:07;;;;;;;;;;;;;;;;;;5053478;28;19917;-85
2022/09/30 00:51:34;;;;;;;;;;;;;;;;;;5053569;28;19917;-85
2022/09/30 00:54:00;;;;;;;;;;;;;;;;;;5053583;28;19917;-85
2022/09/30 00:56:27;;;;;;;;;;;;;;;;;;5055138;28;19993;-85
2022/09/30 00:58:53;;;;;;;;;;;;;;;;;;5053400;28;19920;-85
2022/09/30 01:01:19;;;;;;;;;;;;;;;;;;5053607;28;19924;-85
2022/09/30 01:03:49;;;;;;;;;;;;;;;;;;5054744;28;19916;-84
2022/09/30 01:06:15;;;;;;;;;;;;;;;;;;5055745;28;19927;-85
2022/09/30 01:08:41;;;;;;;;;;;;;;;;;;5053261;28;20385;-84
2022/09/30 01:11:13;;;;;;;;;;;;;;;;;;5054633;28;19952;-85
2022/09/30 01:13:38;;;;;;;;;;;;;;;;;;5054269;28;20020;-85
2022/09/30 01:16:07;;;;;;;;;;;;;;;;;;5054371;28;20353;-85
2022/09/30 01:18:48;;;;;;;;;;;;;;;;;;5053974;28;19917;-85
2022/09/30 01:21:14;;;;;;;;;;;;;;;;;;5053202;28;19917;-85
2022/09/30 01:23:40;;;;;;;;;;;;;;;;;;5054442;28;20238;-84
2022/09/30 01:26:20;;;;;;;;;;;;;;;;;;5054268;28;19917;-86
2022/09/30 01:29:09;;;;;;;;;;;;;;;;;;5054206;28;19955;-86
2022/09/30 01:31:40;;;;;;;;;;;;;;;;;;5043107;28;19953;-86
2022/09/30 01:34:11;;;;;;;;;;;;;;;;;;5036364;28;19924;-85
2022/09/30 01:36:47;;;;;;;;;;;;;;;;;;5054350;28;19931;-85
2022/09/30 01:39:19;;;;;;;;;;;;;;;;;;5053885;28;20341;-85
2022/09/30 01:41:51;;;;;;;;;;;;;;;;;;5052810;28;19917;-84
2022/09/30 01:44:34;;;;;;;;;;;;;;;;;;5052782;28;19913;-85
2022/09/30 01:47:01;;;;;;;;;;;;;;;;;;5053666;28;20306;-85
2022/09/30 01:49:30;;;;;;;;;;;;;;;;;;5053132;28;20049;-86
2022/09/30 01:51:55;;;;;;;;;;;;;;;;;;5052704;28;19921;-86
2022/09/30 01:54:24;;;;;;;;;;;;;;;;;;5053675;28;20337;-86
2022/09/30 01:56:51;;;;;;;;;;;;;;;;;;5053882;28;20007;-86
2022/09/30 01:59:20;;;;;;;;;;;;;;;;;;5052739;28;19928;-86
2022/09/30 02:01:52;;;;;;;;;;;;;;;;;;5052664;28;19939;-86
2022/09/30 02:04:19;;;;;;;;;;;;;;;;;;5052619;28;20308;-85
2022/09/30 02:06:47;;;;;;;;;;;;;;;;;;5053756;28;19916;-86
2022/09/30 02:09:17;;;;;;;;;;;;;;;;;;5052413;28;20018;-85
2022/09/30 02:11:42;;;;;;;;;;;;;;;;;;5054049;28;19924;-86
2022/09/30 02:14:25;;;;;;;;;;;;;;;;;;5052991;28;19917;-86
2022/09/30 02:16:58;;;;;;;;;;;;;;;;;;5052381;28;19967;-86
2022/09/30 02:19:27;;;;;;;;;;;;;;;;;;5056264;28;19917;-86
2022/09/30 02:22:10;;;;;;;;;;;;;;;;;;5057335;28;19920;-85
2022/09/30 02:24:36;;;;;;;;;;;;;;;;;;5039889;28;19917;-85
2022/09/30 02:27:01;;;;;;;;;;;;;;;;;;5056063;28;20330;-86
2022/09/30 02:29:28;;;;;;;;;;;;;;;;;;5057250;28;19916;-86
2022/09/30 02:31:54;;;;;;;;;;;;;;;;;;5057039;28;19932;-86
2022/09/30 02:34:21;;;;;;;;;;;;;;;;;;5056038;28;19917;-86
2022/09/30 02:36:50;;;;;;;;;;;;;;;;;;5056054;28;19917;-85
2022/09/30 02:39:20;;;;;;;;;;;;;;;;;;5055985;28;20325;-86
2022/09/30 02:41:50;;;;;;;;;;;;;;;;;;5055816;28;19917;-86
2022/09/30 02:44:17;;;;;;;;;;;;;;;;;;5056750;28;20330;-86
2022/09/30 02:46:50;;;;;;;;;;;;;;;;;;5056255;28;19916;-86
2022/09/30 02:49:22;;;;;;;;;;;;;;;;;;5056366;28;20007;-86
2022/09/30 02:52:10;;;;;;;;;;;;;;;;;;5056445;28;19917;-85
2022/09/30 02:54:54;;;;;;;;;;;;;;;;;;5056158;28;20007;-86
2022/09/30 02:57:22;;;;;;;;;;;;;;;;;;5058478;28;19929;-86
2022/09/30 02:59:50;;;;;;;;;;;;;;;;;;5056701;28;20277;-85
2022/09/30 03:02:15;;;;;;;;;;;;;;;;;;5056664;28;20296;-86
2022/09/30 03:04:40;;;;;;;;;;;;;;;;;;5056602;28;19920;-85
2022/09/30 03:07:06;;;;;;;;;;;;;;;;;;5038764;28;19952;-85
2022/09/30 03:09:33;;;;;;;;;;;;;;;;;;5056476;28;20261;-86
2022/09/30 03:12:10;;;;;;;;;;;;;;;;;;5056452;28;19913;-85
2022/09/30 03:14:40;;;;;;;;;;;;;;;;;;5038373;28;19917;-86
2022/09/30 03:17:17;;;;;;;;;;;;;;;;;;5038794;28;19917;-86
2022/09/30 03:19:48;;;;;;;;;;;;;;;;;;5056635;28;19921;-85
2022/09/30 03:22:50;;;;;;;;;;;;;;;;;;5056391;28;20326;-85
2022/09/30 03:25:18;;;;;;;;;;;;;;;;;;4994811;28;20329;-85
2022/09/30 03:27:59;;;;;;;;;;;;;;;;;;5044721;28;19921;-85
2022/09/30 03:30:28;;;;;;;;;;;;;;;;;;5037528;28;20331;-86
2022/09/30 03:33:02;;;;;;;;;;;;;;;;;;5038807;28;20014;-85
2022/09/30 03:35:28;;;;;;;;;;;;;;;;;;5056311;28;19916;-84
2022/09/30 03:37:53;;;;;;;;;;;;;;;;;;5056211;28;20015;-85
2022/09/30 03:40:27;;;;;;;;;;;;;;;;;;5055991;28;20265;-86
2022/09/30 03:42:56;;;;;;;;;;;;;;;;;;5055910;28;19917;-85
2022/09/30 03:45:35;;;;;;;;;;;;;;;;;;5038016;28;19913;-86
2022/09/30 03:48:02;;;;;;;;;;;;;;;;;;5038092;28;19917;-86
2022/09/30 03:50:27;;;;;;;;;;;;;;;;;;5055828;28;19912;-86
2022/09/30 03:52:53;;;;;;;;;;;;;;;;;;5037976;28;20331;-86
2022/09/30 03:55:18;;;;;;;;;;;;;;;;;;5038151;28;20286;-86
2022/09/30 03:57:44;;;;;;;;;;;;;;;;;;5040678;28;19928;-85
2022/09/30 04:00:11;;;;;;;;;;;;;;;;;;5054416;28;20329;-86
2022/09/30 04:02:36;;;;;;;;;;;;;;;;;;5055570;28;19916;-87
2022/09/30 04:05:02;;;;;;;;;;;;;;;;;;5055869;28;20340;-76
2022/09/30 04:07:27;;;;;;;;;;;;;;;;;;5055675;28;20237;-77
2022/09/30 04:09:52;;;;;;;;;;;;;;;;;;5055451;28;19917;-77
2022/09/30 04:12:18;;;;;;;;;;;;;;;;;;5055076;28;19921;-77
2022/09/30 04:14:43;;;;;;;;;;;;;;;;;;5053940;28;20303;-77
2022/09/30 04:17:09;;;;;;;;;;;;;;;;;;5055296;28;19917;-77
2022/09/30 04:19:38;;;;;;;;;;;;;;;;;;5055426;28;19917;-77
2022/09/30 04:22:04;;;;;;;;;;;;;;;;;;5055489;28;20401;-77
2022/09/30 04:24:29;;;;;;;;;;;;;;;;;;5053954;28;20017;-78
2022/09/30 04:26:54;;;;;;;;;;;;;;;;;;5055135;28;19916;-77
2022/09/30 04:29:20;;;;;;;;;;;;;;;;;;5055110;28;19959;-77
2022/09/30 04:31:45;;;;;;;;;;;;;;;;;;5054927;28;19967;-76
2022/09/30 04:34:10;;;;;;;;;;;;;;;;;;5054752;28;19917;-77
2022/09/30 04:36:36;;;;;;;;;;;;;;;;;;5054626;28;20235;-77
2022/09/30 04:39:01;;;;;;;;;;;;;;;;;;5054640;28;19960;-77
2022/09/30 04:41:27;;;;;;;;;;;;;;;;;;5054141;28;19943;-77
2022/09/30 04:43:54;;;;;;;;;;;;;;;;;;5067752;28;19975;-78
2022/09/30 04:46:20;;;;;;;;;;;;;;;;;;5073746;28;19974;-76
2022/09/30 04:48:45;;;;;;;;;;;;;;;;;;5071325;28;20000;-76
2022/09/30 04:51:12;;;;;;;;;;;;;;;;;;5059743;28;20218;-76
2022/09/30 04:53:38;;;;;;;;;;;;;;;;;;5047391;28;19950;-78
2022/09/30 04:56:03;;;;;;;;;;;;;;;;;;5056049;28;19928;-76
2022/09/30 04:58:28;;;;;;;;;;;;;;;;;;5093259;28;19920;-77
2022/09/30 05:01:03;;;;;;;;;;;;;;;;;;5097704;28;20488;-77
2022/09/30 05:03:29;;;;;;;;;;;;;;;;;;5096369;28;19984;-79
2022/09/30 05:05:54;;;;;;;;;;;;;;;;;;5092860;28;19963;-78
2022/09/30 05:08:21;;;;;;;;;;;;;;;;;;5084779;28;19931;-82
2022/09/30 05:10:57;;;;;;;;;;;;;;;;;;5095046;28;19916;-81
2022/09/30 05:13:33;;;;;;;;;;;;;;;;;;5073356;28;19920;-80
2022/09/30 05:15:58;;;;;;;;;;;;;;;;;;5089838;28;19924;-81
2022/09/30 05:18:26;;;;;;;;;;;;;;;;;;5091325;28;19916;-81
2022/09/30 05:21:09;;;;;;;;;;;;;;;;;;5092702;28;20070;-81
2022/09/30 05:23:34;;;;;;;;;;;;;;;;;;5073506;28;20011;-81
2022/09/30 05:26:00;;;;;;;;;;;;;;;;;;5094385;28;20012;-79
2022/09/30 05:28:26;;;;;;;;;;;;;;;;;;5092522;28;20093;-80
2022/09/30 05:30:58;;;;;;;;;;;;;;;;;;5091020;28;20336;-79
2022/09/30 05:33:24;;;;;;;;;;;;;;;;;;5077215;28;20015;-80
2022/09/30 05:35:49;;;;;;;;;;;;;;;;;;5090275;28;19965;-78
2022/09/30 05:38:14;;;;;;;;;;;;;;;;;;5092970;28;20022;-81
2022/09/30 05:40:40;;;;;;;;;;;;;;;;;;5098650;28;20044;-80
2022/09/30 05:43:05;;;;;;;;;;;;;;;;;;5075963;28;19916;-80
2022/09/30 05:45:31;;;;;;;;;;;;;;;;;;5060417;28;19955;-79
2022/09/30 05:47:56;;;;;;;;;;;;;;;;;;5056944;28;19975;-81
2022/09/30 05:50:22;;;;;;;;;;;;;;;;;;5082123;28;20380;-79
2022/09/30 05:52:48;;;;;;;;;;;;;;;;;;5093063;28;19920;-81
2022/09/30 05:55:14;;;;;;;;;;;;;;;;;;5115069;28;20038;-80
2022/09/30 05:57:39;;;;;;;;;;;;;;;;;;5089901;28;19975;-79
2022/09/30 06:00:05;;;;;;;;;;;;;;;;;;5091682;28;19904;-82
2022/09/30 06:02:30;;;;;;;;;;;;;;;;;;5089188;28;19955;-78
2022/09/30 06:04:56;;;;;;;;;;;;;;;;;;5092408;28;19916;-81
2022/09/30 06:07:21;;;;;;;;;;;;;;;;;;5090799;28;19954;-80
2022/09/30 06:09:46;;;;;;;;;;;;;;;;;;5066678;28;19916;-81
2022/09/30 06:12:12;;;;;;;;;;;;;;;;;;5080089;28;19956;-81
2022/09/30 06:14:44;;;;;;;;;;;;;;;;;;5057207;28;19924;-78
2022/09/30 06:17:09;;;;;;;;;;;;;;;;;;5073443;28;20353;-80
2022/09/30 06:19:35;;;;;;;;;;;;;;;;;;5074178;28;19962;-80
2022/09/30 06:22:00;;;;;;;;;;;;;;;;;;5076255;28;19970;-79
2022/09/30 06:24:25;;;;;;;;;;;;;;;;;;5075689;28;19916;-79
2022/09/30 06:26:51;;;;;;;;;;;;;;;;;;5075999;28;19923;-79
2022/09/30 06:29:16;;;;;;;;;;;;;;;;;;5078879;28;19916;-77
2022/09/30 06:31:41;;;;;;;;;;;;;;;;;;5057209;28;19921;-80
2022/09/30 06:34:07;;;;;;;;;;;;;;;;;;5074466;28;19920;-80
2022/09/30 06:36:32;;;;;;;;;;;;;;;;;;5075494;28;19943;-79
2022/09/30 06:39:01;;;;;;;;;;;;;;;;;;5073474;28;19942;-80
2022/09/30 06:41:27;;;;;;;;;;;;;;;;;;5077430;28;20011;-78
2022/09/30 06:43:53;;;;;;;;;;;;;;;;;;5073206;28;19924;-78
2022/09/30 06:46:22;;;;;;;;;;;;;;;;;;5069494;28;19924;-78
2022/09/30 06:48:48;;;;;;;;;;;;;;;;;;5034819;28;19921;-77
2022/09/30 06:51:14;;;;;;;;;;;;;;;;;;5066980;28;19920;-78
2022/09/30 06:53:39;;;;;;;;;;;;;;;;;;5068750;28;19935;-79
2022/09/30 06:56:05;;;;;;;;;;;;;;;;;;5052110;28;19981;-77
2022/09/30 06:58:30;;;;;;;;;;;;;;;;;;5071632;28;19921;-77
2022/09/30 07:00:57;;;;;;;;;;;;;;;;;;5072095;28;19923;-77
2022/09/30 07:03:28;;;;;;;;;;;;;;;;;;5054055;28;19926;-77
2022/09/30 07:05:57;;;;;;;;;;;;;;;;;;5070343;28;19917;-77
2022/09/30 07:08:24;;;;;;;;;;;;;;;;;;5070165;28;19927;-78
2022/09/30 07:10:50;;;;;;;;;;;;;;;;;;5054365;28;19912;-77
2022/09/30 07:13:15;;;;;;;;;;;;;;;;;;5072554;28;20466;-76
2022/09/30 07:15:41;;;;;;;;;;;;;;;;;;5074147;28;20065;-79
2022/09/30 07:18:07;;;;;;;;;;;;;;;;;;5072520;28;19977;-77
2022/09/30 07:20:32;;;;;;;;;;;;;;;;;;5054604;28;20003;-78
2022/09/30 07:22:58;;;;;;;;;;;;;;;;;;5071844;28;20405;-78
2022/09/30 07:25:23;;;;;;;;;;;;;;;;;;5073772;28;19924;-78
2022/09/30 07:27:49;;;;;;;;;;;;;;;;;;5060261;28;19963;-77
2022/09/30 07:30:14;;;;;;;;;;;;;;;;;;5055151;28;20245;-76
2022/09/30 07:32:39;;;;;;;;;;;;;;;;;;5067210;28;19980;-77
2022/09/30 07:35:06;;;;;;;;;;;;;;;;;;5073172;28;19978;-77
2022/09/30 07:37:34;;;;;;;;;;;;;;;;;;5069455;28;19948;-78
2022/09/30 07:40:00;;;;;;;;;;;;;;;;;;5069248;28;20046;-77
2022/09/30 07:42:26;;;;;;;;;;;;;;;;;;5069745;28;20234;-80
2022/09/30 07:44:51;;;;;;;;;;;;;;;;;;5068576;28;19962;-77
2022/09/30 07:47:17;;;;;;;;;;;;;;;;;;5070263;28;19947;-76
2022/09/30 07:49:42;;;;;;;;;;;;;;;;;;5070506;28;20007;-78
2022/09/30 07:52:09;;;;;;;;;;;;;;;;;;5069494;28;19952;-76
2022/09/30 07:54:34;;;;;;;;;;;;;;;;;;5069600;28;19974;-78
2022/09/30 07:57:00;;;;;;;;;;;;;;;;;;5063952;28;19924;-76
2022/09/30 07:59:26;;;;;;;;;;;;;;;;;;5069674;28;19934;-76
2022/09/30 08:01:51;;;;;;;;;;;;;;;;;;5054518;28;19920;-76
2022/09/30 08:04:17;;;;;;;;;;;;;;;;;;5067834;28;20391;-76
2022/09/30 08:06:45;;;;;;;;;;;;;;;;;;5069438;28;19917;-78
2022/09/30 08:09:12;;;;;;;;;;;;;;;;;;5068851;28;19944;-76
2022/09/30 08:11:37;;;;;;;;;;;;;;;;;;5069022;28;19959;-76
2022/09/30 08:14:03;;;;;;;;;;;;;;;;;;5071710;28;19917;-76
2022/09/30 08:16:28;;;;;;;;;;;;;;;;;;5069829;28;20280;-80
2022/09/30 08:18:57;;;;;;;;;;;;;;;;;;5069711;28;19925;-76
2022/09/30 08:21:22;;;;;;;;;;;;;;;;;;5069549;28;19920;-75
2022/09/30 08:23:48;;;;;;;;;;;;;;;;;;5068772;28;20037;-76
2022/09/30 08:26:14;;;;;;;;;;;;;;;;;;5068566;28;20094;-76
2022/09/30 08:28:39;;;;;;;;;;;;;;;;;;5069975;28;19916;-76
2022/09/30 08:31:15;;;;;;;;;;;;;;;;;;5070311;28;20345;-76
2022/09/30 08:33:40;;;;;;;;;;;;;;;;;;5070464;28;19940;-76
2022/09/30 08:36:06;;;;;;;;;;;;;;;;;;5073734;28;20321;-75
2022/09/30 08:38:32;;;;;;;;;;;;;;;;;;5061986;28;20018;-76
2022/09/30 08:41:10;;;;;;;;;;;;;;;;;;5073615;28;19977;-77
2022/09/30 08:43:38;;;;;;;;;;;;;;;;;;5072182;28;19932;-76
2022/09/30 08:46:07;;;;;;;;;;;;;;;;;;5072955;28;20294;-77
2022/09/30 08:48:39;;;;;;;;;;;;;;;;;;5053228;28;19917;-76
2022/09/30 08:51:07;;;;;;;;;;;;;;;;;;5070954;28;19943;-78
2022/09/30 08:53:34;;;;;;;;;;;;;;;;;;5067723;28;19929;-78
2022/09/30 08:56:01;;;;;;;;;;;;;;;;;;5069138;28;20050;-75
2022/09/30 08:58:30;;;;;;;;;;;;;;;;;;4985394;28;1867091;-75
2022/09/30 09:01:16;;;;;;;;;;;;;;;;;;5050684;28;19978;-76
2022/09/30 09:03:42;;;;;;;;;;;;;;;;;;5069881;28;20406;-76
2022/09/30 09:06:26;;;;;;;;;;;;;;;;;;5050384;28;19916;-77
2022/09/30 09:08:58;;;;;;;;;;;;;;;;;;5071210;28;19924;-77
2022/09/30 09:11:39;;;;;;;;;;;;;;;;;;5035895;28;20019;-76
2022/09/30 09:14:06;;;;;;;;;;;;;;;;;;5070638;28;19916;-75
2022/09/30 09:16:36;;;;;;;;;;;;;;;;;;5051949;28;19920;-74
2022/09/30 09:19:16;;;;;;;;;;;;;;;;;;5069382;28;19923;-73
2022/09/30 09:21:52;;;;;;;;;;;;;;;;;;5051576;28;19917;-76
2022/09/30 09:24:21;;;;;;;;;;;;;;;;;;5053401;28;20062;-77
2022/09/30 09:26:46;;;;;;;;;;;;;;;;;;5053734;28;19935;-76
2022/09/30 09:29:27;;;;;;;;;;;;;;;;;;5072129;28;19917;-75
2022/09/30 09:31:53;;;;;;;;;;;;;;;;;;5073791;28;19916;-75
2022/09/30 09:34:18;;;;;;;;;;;;;;;;;;5056117;28;19924;-76
2022/09/30 09:36:51;;;;;;;;;;;;;;;;;;5074451;28;20304;-75
2022/09/30 09:39:16;;;;;;;;;;;;;;;;;;5057894;28;20011;-76
2022/09/30 09:42:01;;;;;;;;;;;;;;;;;;5074708;28;20419;-75
2022/09/30 09:44:38;;;;;;;;;;;;;;;;;;5071263;28;20275;-74
2022/09/30 09:47:04;;;;;;;;;;;;;;;;;;5050852;28;19921;-76
2022/09/30 09:49:33;;;;;;;;;;;;;;;;;;5070492;28;20261;-77
2022/09/30 09:52:04;;;;;;;;;;;;;;;;;;5067128;28;19941;-77
2022/09/30 09:54:30;;;;;;;;;;;;;;;;;;5035900;28;19927;-76
2022/09/30 09:57:03;;;;;;;;;;;;;;;;;;5052721;28;19917;-75
2022/09/30 09:59:30;;;;;;;;;;;;;;;;;;5072040;28;20338;-77
2022/09/30 10:01:55;;;;;;;;;;;;;;;;;;5051008;28;20337;-77
2022/09/30 10:04:32;;;;;;;;;;;;;;;;;;5052340;28;19947;-77
2022/09/30 10:07:01;;;;;;;;;;;;;;;;;;5069113;28;19916;-75
2022/09/30 10:09:27;;;;;;;;;;;;;;;;;;5069471;28;19916;-75
2022/09/30 10:12:05;;;;;;;;;;;;;;;;;;5069794;28;19917;-76
2022/09/30 10:14:50;;;;;;;;;;;;;;;;;;5065906;28;19917;-76
2022/09/30 10:17:25;;;;;;;;;;;;;;;;;;5034929;28;19946;-77
2022/09/30 10:19:51;;;;;;;;;;;;;;;;;;5050943;28;20408;-77
2022/09/30 10:22:17;;;;;;;;;;;;;;;;;;5051503;28;20024;-77
2022/09/30 10:24:42;;;;;;;;;;;;;;;;;;5054289;28;19960;-75
2022/09/30 10:27:27;;;;;;;;;;;;;;;;;;5072471;28;19974;-76
2022/09/30 10:29:53;;;;;;;;;;;;;;;;;;5072779;28;19917;-76
2022/09/30 10:32:18;;;;;;;;;;;;;;;;;;5057408;28;19982;-75
2022/09/30 10:34:44;;;;;;;;;;;;;;;;;;5052486;28;20001;-77
2022/09/30 10:37:12;;;;;;;;;;;;;;;;;;5049406;28;21906;-77
2022/09/30 10:39:38;;;;;;;;;;;;;;;;;;5046809;28;19952;-76
2022/09/30 10:42:03;;;;;;;;;;;;;;;;;;5055046;28;19959;-76
2022/09/30 10:44:29;;;;;;;;;;;;;;;;;;5054790;28;19955;-75
2022/09/30 10:46:58;;;;;;;;;;;;;;;;;;5043809;28;19924;-76
2022/09/30 10:49:29;;;;;;;;;;;;;;;;;;5052177;28;19951;-76
2022/09/30 10:51:55;;;;;;;;;;;;;;;;;;5071847;28;19950;-77
2022/09/30 10:54:47;;;;;;;;;;;;;;;;;;5071543;28;19920;-76
2022/09/30 10:57:18;;;;;;;;;;;;;;;;;;5065967;28;20331;-77
2022/09/30 10:59:43;;;;;;;;;;;;;;;;;;5054297;28;19947;-77
2022/09/30 11:02:21;;;;;;;;;;;;;;;;;;5052844;28;19920;-77
2022/09/30 11:04:47;;;;;;;;;;;;;;;;;;5070432;28;19942;-76
2022/09/30 11:07:32;;;;;;;;;;;;;;;;;;5053414;28;19922;-75
2022/09/30 11:09:59;;;;;;;;;;;;;;;;;;5070083;28;20357;-76
2022/09/30 11:12:28;;;;;;;;;;;;;;;;;;5052616;28;19920;-76
2022/09/30 11:15:00;;;;;;;;;;;;;;;;;;5070675;28;20165;-77
2022/09/30 11:17:27;;;;;;;;;;;;;;;;;;5070171;28;19916;-76
2022/09/30 11:20:08;;;;;;;;;;;;;;;;;;5070515;28;19965;-76
2022/09/30 11:22:43;;;;;;;;;;;;;;;;;;5071631;28;20030;-77
2022/09/30 11:25:12;;;;;;;;;;;;;;;;;;5053468;28;20319;-76
2022/09/30 11:27:49;;;;;;;;;;;;;;;;;;5035237;28;19917;-77
2022/09/30 11:30:19;;;;;;;;;;;;;;;;;;5061583;28;19916;-77
2022/09/30 11:32:44;;;;;;;;;;;;;;;;;;5048915;28;19921;-75
2022/09/30 11:35:28;;;;;;;;;;;;;;;;;;5069992;28;20333;-77
2022/09/30 11:38:12;;;;;;;;;;;;;;;;;;5068391;28;19963;-76
2022/09/30 11:40:37;;;;;;;;;;;;;;;;;;5070403;28;19912;-77
2022/09/30 11:43:02;;;;;;;;;;;;;;;;;;5071514;28;19923;-76
2022/09/30 11:45:30;;;;;;;;;;;;;;;;;;5072085;28;19986;-76
2022/09/30 11:48:12;;;;;;;;;;;;;;;;;;5071540;28;19916;-76
2022/09/30 11:50:38;;;;;;;;;;;;;;;;;;5070024;28;19923;-77
2022/09/30 11:53:03;;;;;;;;;;;;;;;;;;5069873;28;19921;-77
2022/09/30 11:55:47;;;;;;;;;;;;;;;;;;5069804;28;19946;-76
2022/09/30 11:58:13;;;;;;;;;;;;;;;;;;5069893;28;19920;-76
2022/09/30 12:00:43;;;;;;;;;;;;;;;;;;5069019;28;19916;-77
2022/09/30 12:03:16;;;;;;;;;;;;;;;;;;5069826;28;20334;-77
2022/09/30 12:05:42;;;;;;;;;;;;;;;;;;5071061;28;20019;-76
2022/09/30 12:08:21;;;;;;;;;;;;;;;;;;5073091;28;19916;-77
2022/09/30 12:10:53;;;;;;;;;;;;;;;;;;5075354;28;19917;-77
2022/09/30 12:13:36;;;;;;;;;;;;;;;;;;5073418;28;20304;-76
2022/09/30 12:16:03;;;;;;;;;;;;;;;;;;5054362;28;19984;-76
2022/09/30 12:18:38;;;;;;;;;;;;;;;;;;5055379;28;20004;-76
2022/09/30 12:21:24;;;;;;;;;;;;;;;;;;5056069;28;19924;-78
2022/09/30 12:23:54;;;;;;;;;;;;;;;;;;5053512;28;20006;-79
2022/09/30 12:26:20;;;;;;;;;;;;;;;;;;5054080;28;19913;-78
2022/09/30 12:31:55;;;;;;;;;;;;;;;;;;5055058;28;19993;-78
2022/09/30 12:34:39;;;;;;;;;;;;;;;;;;5055005;28;19917;-78
2022/09/30 12:37:04;;;;;;;;;;;;;;;;;;5055401;28;19917;-78
2022/09/30 12:39:30;;;;;;;;;;;;;;;;;;5055189;28;19917;-79
2022/09/30 12:42:06;;;;;;;;;;;;;;;;;;5054891;28;19916;-79
2022/09/30 12:44:34;;;;;;;;;;;;;;;;;;5054971;28;19920;-79
2022/09/30 12:47:05;;;;;;;;;;;;;;;;;;5054882;28;19928;-80
2022/09/30 12:49:30;;;;;;;;;;;;;;;;;;5054964;28;19917;-79
2022/09/30 12:51:56;;;;;;;;;;;;;;;;;;5054766;28;19917;-78
2022/09/30 12:54:26;;;;;;;;;;;;;;;;;;5053273;28;19924;-78
2022/09/30 12:56:52;;;;;;;;;;;;;;;;;;5054708;28;19952;-80
2022/09/30 12:59:19;;;;;;;;;;;;;;;;;;5072492;28;19946;-79
2022/09/30 13:01:44;;;;;;;;;;;;;;;;;;5073001;28;20351;-78
2022/09/30 13:04:09;;;;;;;;;;;;;;;;;;5072105;28;20020;-79
2022/09/30 13:06:44;;;;;;;;;;;;;;;;;;5074499;28;19916;-80
2022/09/30 13:09:12;;;;;;;;;;;;;;;;;;5074069;28;19917;-80
2022/09/30 13:11:38;;;;;;;;;;;;;;;;;;5074350;28;19916;-79
2022/09/30 13:14:21;;;;;;;;;;;;;;;;;;5074343;28;19962;-78
2022/09/30 13:17:02;;;;;;;;;;;;;;;;;;5074392;28;19916;-78
2022/09/30 13:19:35;;;;;;;;;;;;;;;;;;5074444;28;19948;-80
2022/09/30 13:22:28;;;;;;;;;;;;;;;;;;5073039;28;20386;-79
2022/09/30 13:24:59;;;;;;;;;;;;;;;;;;5074783;28;20051;-80
2022/09/30 13:27:34;;;;;;;;;;;;;;;;;;5075357;28;20322;-87
2022/09/30 13:30:02;;;;;;;;;;;;;;;;;;5074699;28;20231;-88
2022/09/30 13:32:36;;;;;;;;;;;;;;;;;;5092506;28;19919;-87
2022/09/30 13:35:01;;;;;;;;;;;;;;;;;;5086782;28;19950;-87
2022/09/30 13:37:29;;;;;;;;;;;;;;;;;;5076782;28;19917;-87
2022/09/30 13:39:55;;;;;;;;;;;;;;;;;;5057922;28;19916;-87
2022/09/30 13:42:28;;;;;;;;;;;;;;;;;;5073571;28;19970;-86
2022/09/30 13:45:12;;;;;;;;;;;;;;;;;;5073540;28;19917;-87
2022/09/30 13:47:37;;;;;;;;;;;;;;;;;;5076054;28;20293;-87
2022/09/30 13:50:21;;;;;;;;;;;;;;;;;;5074805;28;19956;-87
2022/09/30 13:52:48;;;;;;;;;;;;;;;;;;5074535;28;19920;-87
2022/09/30 13:55:13;;;;;;;;;;;;;;;;;;5077265;28;19938;-87
2022/09/30 13:57:47;;;;;;;;;;;;;;;;;;5051124;28;19921;-86
2022/09/30 14:00:13;;;;;;;;;;;;;;;;;;5052897;28;19920;-87
2022/09/30 14:02:58;;;;;;;;;;;;;;;;;;5053475;28;20297;-87
2022/09/30 14:05:42;;;;;;;;;;;;;;;;;;5054038;28;19976;-86
2022/09/30 14:08:21;;;;;;;;;;;;;;;;;;5055151;28;19916;-86
2022/09/30 14:11:01;;;;;;;;;;;;;;;;;;5055544;28;19948;-87
2022/09/30 14:13:27;;;;;;;;;;;;;;;;;;5057863;28;20004;-86
2022/09/30 14:16:07;;;;;;;;;;;;;;;;;;5041443;28;19963;-87
2022/09/30 14:18:42;;;;;;;;;;;;;;;;;;5059375;28;19917;-87
2022/09/30 14:21:26;;;;;;;;;;;;;;;;;;5059532;28;19917;-87
2022/09/30 14:24:08;;;;;;;;;;;;;;;;;;5061787;28;19921;-86
2022/09/30 14:26:52;;;;;;;;;;;;;;;;;;5071318;28;20419;-87
2022/09/30 14:29:29;;;;;;;;;;;;;;;;;;5040489;28;19917;-88
2022/09/30 14:31:55;;;;;;;;;;;;;;;;;;5059887;28;20285;-88
2022/09/30 14:34:21;;;;;;;;;;;;;;;;;;5058750;28;19952;-87
2022/09/30 14:36:48;;;;;;;;;;;;;;;;;;5056798;28;19967;-87
2022/09/30 14:39:14;;;;;;;;;;;;;;;;;;5061915;28;20322;-87
2022/09/30 14:41:40;;;;;;;;;;;;;;;;;;5064028;28;20314;-87
2022/09/30 14:44:07;;;;;;;;;;;;;;;;;;5062519;28;19917;-88
2022/09/30 14:46:39;;;;;;;;;;;;;;;;;;5058493;28;19917;-88
2022/09/30 14:49:05;;;;;;;;;;;;;;;;;;5044581;28;20448;-88
2022/09/30 14:51:42;;;;;;;;;;;;;;;;;;5060839;28;19921;-86
2022/09/30 14:54:19;;;;;;;;;;;;;;;;;;5059447;28;19946;-87
2022/09/30 14:56:45;;;;;;;;;;;;;;;;;;5043652;28;19923;-88
2022/09/30 14:59:30;;;;;;;;;;;;;;;;;;5060630;28;20006;-87
2022/09/30 15:02:04;;;;;;;;;;;;;;;;;;5077511;28;19916;-86
2022/09/30 15:04:32;;;;;;;;;;;;;;;;;;5059536;28;19916;-88
2022/09/30 15:07:00;;;;;;;;;;;;;;;;;;5077226;28;19916;-87
2022/09/30 15:09:31;;;;;;;;;;;;;;;;;;5079475;28;19916;-87
2022/09/30 15:11:57;;;;;;;;;;;;;;;;;;5082863;28;19916;-86
2022/09/30 15:14:23;;;;;;;;;;;;;;;;;;5066542;28;19961;-88
2022/09/30 15:16:49;;;;;;;;;;;;;;;;;;5078276;28;19923;-87
2022/09/30 15:19:24;;;;;;;;;;;;;;;;;;5060849;28;19960;-87
2022/09/30 15:21:51;;;;;;;;;;;;;;;;;;5083639;28;19966;-88
2022/09/30 15:24:16;;;;;;;;;;;;;;;;;;5081933;28;19921;-86
2022/09/30 15:26:42;;;;;;;;;;;;;;;;;;5074119;28;19920;-87
2022/09/30 15:29:16;;;;;;;;;;;;;;;;;;5093064;28;19976;-87
2022/09/30 15:31:43;;;;;;;;;;;;;;;;;;5093412;28;19938;-87
2022/09/30 15:34:18;;;;;;;;;;;;;;;;;;5077862;28;19916;-88
2022/09/30 15:36:50;;;;;;;;;;;;;;;;;;5094221;28;19917;-86
2022/09/30 15:39:17;;;;;;;;;;;;;;;;;;5099288;28;19912;-87
2022/09/30 15:41:42;;;;;;;;;;;;;;;;;;5099489;28;19971;-85
2022/09/30 15:44:15;;;;;;;;;;;;;;;;;;5099571;28;19908;-85
2022/09/30 15:46:40;;;;;;;;;;;;;;;;;;5082862;28;19912;-85
2022/09/30 15:49:27;;;;;;;;;;;;;;;;;;5099407;28;19927;-85
2022/09/30 15:51:53;;;;;;;;;;;;;;;;;;5072623;28;20352;-86
2022/09/30 15:54:24;;;;;;;;;;;;;;;;;;5076016;28;19917;-87
2022/09/30 15:56:50;;;;;;;;;;;;;;;;;;5081127;28;19955;-87
2022/09/30 15:59:15;;;;;;;;;;;;;;;;;;5082252;28;19921;-88
2022/09/30 16:01:44;;;;;;;;;;;;;;;;;;5064074;28;19917;-87
2022/09/30 16:04:15;;;;;;;;;;;;;;;;;;5082432;28;19982;-88
2022/09/30 16:06:40;;;;;;;;;;;;;;;;;;5062555;28;19916;-87
2022/09/30 16:09:27;;;;;;;;;;;;;;;;;;5058610;28;19974;-87
2022/09/30 16:12:04;;;;;;;;;;;;;;;;;;5075628;28;20338;-87
2022/09/30 16:14:32;;;;;;;;;;;;;;;;;;5077787;28;20014;-88
2022/09/30 16:16:59;;;;;;;;;;;;;;;;;;5080142;28;20291;-87
2022/09/30 16:19:25;;;;;;;;;;;;;;;;;;5081503;28;19999;-88
2022/09/30 16:21:50;;;;;;;;;;;;;;;;;;5081924;28;19962;-87
2022/09/30 16:24:22;;;;;;;;;;;;;;;;;;5076463;28;20368;-87
2022/09/30 16:26:55;;;;;;;;;;;;;;;;;;5059624;28;19916;-87
2022/09/30 16:29:21;;;;;;;;;;;;;;;;;;5078025;28;19917;-87
2022/09/30 16:31:47;;;;;;;;;;;;;;;;;;5078944;28;19976;-88
2022/09/30 16:34:22;;;;;;;;;;;;;;;;;;5082446;28;20314;-88
2022/09/30 16:36:47;;;;;;;;;;;;;;;;;;5085886;28;19921;-86
2022/09/30 16:39:13;;;;;;;;;;;;;;;;;;5078258;28;19916;-87
2022/09/30 16:41:39;;;;;;;;;;;;;;;;;;5079142;28;19921;-87
2022/09/30 16:44:05;;;;;;;;;;;;;;;;;;5079329;28;19978;-87
2022/09/30 16:46:31;;;;;;;;;;;;;;;;;;5063055;28;19923;-87
2022/09/30 16:48:57;;;;;;;;;;;;;;;;;;5081730;28;19916;-87
2022/09/30 16:51:23;;;;;;;;;;;;;;;;;;5080554;28;20322;-88
2022/09/30 16:53:48;;;;;;;;;;;;;;;;;;5080432;28;19923;-87
2022/09/30 16:56:15;;;;;;;;;;;;;;;;;;5079360;28;19966;-87
2022/09/30 16:58:41;;;;;;;;;;;;;;;;;;5061749;28;19970;-87
2022/09/30 17:01:12;;;;;;;;;;;;;;;;;;5077546;28;19938;-87
2022/09/30 17:03:38;;;;;;;;;;;;;;;;;;5075905;28;19923;-87